Time;durP1;ratioP1;P1;durP2;ratioP2;P2;SDS_P1;SDS_P2;PMS_P1;PMS_P2;Temp;Humidity;BMP_temperature;BMP_pressure;BME280_temperature;BME280_humidity;BME280_pressure;Samples;Min_cycle;Max_cycle;Signal;HPM_P1;HPM_P2
2022/07/16 00:05:23;;;;;;;7.40;2.58;;;;;;;15.82;60.75;100833.25;20750000;28;20062;-67
2022/07/16 00:15:24;;;;;;;10.90;2.53;;;;;;;15.76;60.71;100841.34;20749292;28;20120;-67
2022/07/16 00:25:26;;;;;;;7.85;2.60;;;;;;;15.58;62.00;100838.31;20748818;28;20050;-68
2022/07/16 00:35:27;;;;;;;4.75;2.05;;;;;;;15.30;63.66;100842.66;20746510;28;20049;-67
2022/07/16 00:45:29;;;;;;;5.60;2.40;;;;;;;15.45;63.05;100847.50;20747188;28;20060;-68
2022/07/16 00:55:30;;;;;;;6.35;2.15;;;;;;;15.53;63.33;100845.53;20746610;28;20491;-68
2022/07/16 01:05:32;;;;;;;5.35;2.40;;;;;;;15.34;66.36;100854.88;20745273;28;20060;-67
2022/07/16 01:15:33;;;;;;;6.35;2.17;;;;;;;15.26;66.01;100851.56;20745005;28;20425;-67
2022/07/16 01:25:34;;;;;;;7.97;2.05;;;;;;;15.17;68.78;100842.13;20744416;28;20054;-68
2022/07/16 01:35:36;;;;;;;7.43;2.38;;;;;;;15.11;69.92;100851.09;20743033;28;20064;-67
2022/07/16 01:45:37;;;;;;;5.63;2.15;;;;;;;14.92;71.85;100852.47;20742644;28;20045;-67
2022/07/16 01:55:39;;;;;;;5.43;2.08;;;;;;;14.80;74.28;100852.78;20741642;28;20052;-67
2022/07/16 02:05:40;;;;;;;6.70;2.40;;;;;;;14.70;75.06;100838.13;20740823;28;20479;-67
2022/07/16 02:15:41;;;;;;;5.78;2.42;;;;;;;14.52;75.89;100845.59;20740497;28;20050;-68
2022/07/16 02:25:43;;;;;;;7.97;2.60;;;;;;;14.26;77.26;100845.31;20740089;28;20497;-67
2022/07/16 02:35:44;;;;;;;6.75;2.90;;;;;;;14.10;78.38;100845.69;20738803;28;20060;-67
2022/07/16 02:45:45;;;;;;;4.40;2.63;;;;;;;14.03;78.98;100833.56;20738774;28;20057;-67
2022/07/16 02:55:47;;;;;;;7.70;2.80;;;;;;;13.85;80.33;100839.25;20738001;28;20493;-66
2022/07/16 03:05:48;;;;;;;8.23;2.85;;;;;;;13.35;83.85;100849.06;20735822;28;20050;-69
2022/07/16 03:15:49;;;;;;;6.07;3.17;;;;;;;13.20;86.06;100860.72;20736569;28;20061;-67
2022/07/16 03:25:51;;;;;;;6.63;3.35;;;;;;;12.87;90.94;100856.09;20736679;28;20592;-69
2022/07/16 03:35:52;;;;;;;6.75;3.33;;;;;;;12.90;91.28;100871.81;20735692;28;20054;-66
2022/07/16 03:45:53;;;;;;;5.43;3.33;;;;;;;12.91;90.28;100863.88;20735034;28;20060;-67
2022/07/16 03:55:55;;;;;;;7.65;3.40;;;;;;;13.14;89.61;100859.97;20734936;28;20042;-67
2022/07/16 04:05:56;;;;;;;8.77;3.92;;;;;;;13.07;90.75;100875.84;20734696;28;20072;-68
2022/07/16 04:15:58;;;;;;;8.23;3.85;;;;;;;13.34;89.26;100878.91;20744666;28;20056;-70
2022/07/16 04:25:59;;;;;;;6.55;3.55;;;;;;;13.48;86.83;100886.53;20749080;28;20056;-67
2022/07/16 04:36:02;;;;;;;7.68;4.05;;;;;;;14.04;85.43;100885.34;20747510;28;20060;-68
2022/07/16 04:46:04;;;;;;;7.05;3.60;;;;;;;14.80;77.77;100885.31;20747483;28;20498;-68
2022/07/16 04:56:05;;;;;;;6.72;3.70;;;;;;;15.59;72.15;100882.28;20746587;28;20050;-67
2022/07/16 05:06:07;;;;;;;7.00;3.55;;;;;;;15.03;78.17;100892.59;20744149;28;20418;-67
2022/07/16 05:16:08;;;;;;;5.93;3.92;;;;;;;15.31;76.66;100891.88;20744814;28;20059;-66
2022/07/16 05:26:09;;;;;;;5.68;3.35;;;;;;;15.54;75.53;100888.59;20743712;28;20053;-69
2022/07/16 05:36:11;;;;;;;6.70;3.58;;;;;;;15.96;71.47;100897.09;20743258;28;20502;-68
2022/07/16 05:46:12;;;;;;;9.32;4.57;;;;;;;16.05;70.98;100899.47;20742405;28;20057;-67
2022/07/16 05:56:14;;;;;;;9.40;4.00;;;;;;;16.42;70.67;100916.78;20742150;28;20053;-69
2022/07/16 06:06:15;;;;;;;9.82;4.53;;;;;;;16.64;71.99;100917.84;20740061;28;20049;-66
2022/07/16 06:16:17;;;;;;;8.23;3.80;;;;;;;17.02;66.65;100913.09;20740183;28;20056;-67
2022/07/16 06:26:18;;;;;;;8.25;3.55;;;;;;;17.48;57.27;100921.19;20739515;28;20068;-71
2022/07/16 06:36:19;;;;;;;10.63;3.55;;;;;;;17.70;61.73;100930.09;20737826;28;20461;-68
2022/07/16 06:46:21;;;;;;;11.43;4.07;;;;;;;18.15;60.98;100935.47;20738278;28;20065;-70
2022/07/16 06:56:23;;;;;;;11.95;4.32;;;;;;;18.24;58.10;100936.91;20736868;28;20053;-68
2022/07/16 07:06:25;;;;;;;8.15;3.88;;;;;;;18.55;57.16;100941.88;20727706;28;20495;-67
2022/07/16 07:16:26;;;;;;;10.13;3.72;;;;;;;18.94;56.58;100941.19;20725335;28;20054;-69
2022/07/16 07:26:28;;;;;;;10.05;3.10;;;;;;;19.35;55.40;100946.53;20725146;28;20054;-67
2022/07/16 07:36:29;;;;;;;7.18;2.58;;;;;;;19.55;52.10;100945.69;20723980;28;20053;-67
2022/07/16 07:46:30;;;;;;;7.47;2.15;;;;;;;19.78;47.61;100934.88;20729657;28;20048;-69
2022/07/16 07:56:32;;;;;;;7.13;2.00;;;;;;;20.27;46.43;100937.09;20743388;28;20053;-67
2022/07/16 08:06:33;;;;;;;5.55;2.22;;;;;;;20.41;47.52;100931.94;20741309;28;20058;-66
2022/07/16 08:16:34;;;;;;;6.82;2.15;;;;;;;20.68;44.87;100933.31;20741626;28;20092;-68
2022/07/16 08:26:36;;;;;;;6.30;2.00;;;;;;;21.04;45.73;100931.56;20740387;28;20069;-68
2022/07/16 08:36:37;;;;;;;6.22;2.00;;;;;;;21.18;47.58;100929.91;20709146;28;20057;-68
2022/07/16 08:46:39;;;;;;;5.45;2.28;;;;;;;21.77;45.63;100919.75;20738537;28;20046;-67
2022/07/16 08:56:40;;;;;;;6.00;1.77;;;;;;;22.04;42.85;100933.38;20738154;28;20929;-67
2022/07/16 09:06:41;;;;;;;6.90;1.70;;;;;;;22.14;43.82;100920.44;20743892;28;20487;-68
2022/07/16 09:16:43;;;;;;;5.32;1.75;;;;;;;22.39;41.52;100917.25;20744735;28;20550;-68
2022/07/16 09:26:44;;;;;;;6.43;1.50;;;;;;;22.62;41.64;100919.47;20743925;28;20426;-68
2022/07/16 09:36:46;;;;;;;6.82;1.40;;;;;;;23.01;41.04;100916.31;20741070;28;20521;-67
2022/07/16 09:46:48;;;;;;;5.78;1.70;;;;;;;23.51;38.65;100908.84;20741865;28;20507;-68
2022/07/16 09:56:50;;;;;;;7.28;1.60;;;;;;;23.66;38.81;100902.56;20740559;28;20050;-68
2022/07/16 10:06:51;;;;;;;4.07;1.55;;;;;;;23.84;39.10;100911.25;20734566;28;20046;-67
2022/07/16 10:16:52;;;;;;;4.15;1.20;;;;;;;24.14;33.35;100900.41;20739887;28;20046;-72
2022/07/16 10:26:54;;;;;;;4.25;1.65;;;;;;;24.50;34.14;100907.06;20738746;28;20419;-69
2022/07/16 10:36:55;;;;;;;9.02;1.60;;;;;;;24.53;33.95;100904.19;20738483;28;20064;-68
2022/07/16 10:46:56;;;;;;;3.78;1.38;;;;;;;25.03;33.53;100902.59;20738416;28;20065;-68
2022/07/16 10:56:58;;;;;;;3.80;1.20;;;;;;;24.49;34.72;100905.34;20730944;28;20140;-68
2022/07/16 11:07:00;;;;;;;5.90;1.40;;;;;;;24.54;32.54;100900.53;20735900;28;20057;-68
2022/07/16 11:17:02;;;;;;;4.10;1.38;;;;;;;24.18;33.42;100893.91;20728787;28;20060;-68
2022/07/16 11:27:03;;;;;;;3.25;1.30;;;;;;;25.05;33.53;100898.84;20674695;28;20050;-67
2022/07/16 11:37:05;;;;;;;6.78;1.55;;;;;;;25.49;33.66;100894.97;20653593;28;20057;-68
2022/07/16 11:47:06;;;;;;;5.80;1.40;;;;;;;25.99;32.06;100893.19;20651247;28;20146;-69
2022/07/16 11:57:08;;;;;;;4.22;1.33;;;;;;;26.05;32.82;100898.09;20652958;28;20525;-67
2022/07/16 12:07:10;;;;;;;4.18;1.55;;;;;;;25.70;31.91;100899.75;20650649;28;20051;-68
2022/07/16 12:17:11;;;;;;;4.85;1.58;;;;;;;25.52;32.30;100893.88;20652799;28;20059;-67
2022/07/16 12:27:13;;;;;;;3.15;1.52;;;;;;;25.08;32.87;100916.56;20651838;28;20049;-66
2022/07/16 12:37:15;;;;;;;5.13;1.30;;;;;;;25.53;32.60;100893.75;20661112;28;20054;-65
2022/07/16 12:47:16;;;;;;;4.53;1.30;;;;;;;25.59;32.32;100890.66;20665623;28;20503;-65
2022/07/16 13:07:38;;;;;;;3.25;1.20;;;;;;;25.55;31.61;100886.47;20743284;28;20052;-65
2022/07/16 13:17:41;;;;;;;6.60;1.70;;;;;;;25.20;32.61;100883.59;20743308;28;20061;-65
2022/07/16 13:27:42;;;;;;;6.20;2.15;;;;;;;25.60;35.24;100883.47;20744337;28;20050;-64
2022/07/16 13:37:48;;;;;;;5.90;1.48;;;;;;;25.65;31.43;100884.00;20742706;28;20062;-64
2022/07/16 13:47:50;;;;;;;4.30;1.58;;;;;;;25.71;31.83;100867.47;20742309;28;20049;-64
2022/07/16 14:08:12;;;;;;;3.33;1.40;;;;;;;26.94;31.20;100863.78;20739401;28;20050;-67
2022/07/16 14:18:13;;;;;;;4.18;1.60;;;;;;;26.27;30.02;100857.13;20738409;28;20053;-66
2022/07/16 14:28:15;;;;;;;4.93;1.75;;;;;;;26.14;31.24;100864.38;20753972;28;20054;-67
2022/07/16 14:38:16;;;;;;;5.38;1.65;;;;;;;26.19;30.86;100878.31;20789260;28;20056;-67
2022/07/16 14:48:18;;;;;;;3.72;1.50;;;;;;;26.78;29.93;100864.09;20736322;28;20080;-69
2022/07/16 14:58:20;;;;;;;3.65;1.90;;;;;;;26.92;30.25;100852.28;20735914;28;20149;-68
2022/07/16 15:08:22;;;;;;;4.78;1.60;;;;;;;27.13;30.40;100853.38;20674830;28;20049;-68
2022/07/16 15:18:23;;;;;;;3.85;1.73;;;;;;;26.79;31.13;100852.41;20653540;28;20133;-68
2022/07/16 15:28:25;;;;;;;4.57;1.77;;;;;;;26.68;28.73;100849.66;20653228;28;20054;-68
2022/07/16 15:38:26;;;;;;;3.42;1.60;;;;;;;26.77;30.09;100841.75;20694468;28;20054;-68
2022/07/16 15:48:27;;;;;;;5.13;2.00;;;;;;;26.65;30.06;100837.31;20733583;28;20046;-69
2022/07/16 15:58:31;;;;;;;6.60;1.63;;;;;;;26.75;29.68;100843.72;20733991;28;20062;-69
2022/07/16 16:08:32;;;;;;;2.57;1.37;;;;;;;27.17;29.60;100833.34;20712099;28;20177;-70
2022/07/16 16:18:33;;;;;;;3.63;1.75;;;;;;;27.35;28.86;100831.84;20672757;28;20476;-72
2022/07/16 16:28:35;;;;;;;3.33;1.70;;;;;;;27.10;29.51;100827.56;20739464;28;20054;-71
2022/07/16 16:38:36;;;;;;;4.70;1.50;;;;;;;27.45;28.98;100823.06;20713612;28;20107;-71
2022/07/16 16:48:38;;;;;;;8.68;2.30;;;;;;;27.29;32.83;100837.72;20658180;28;20232;-71
2022/07/16 16:58:39;;;;;;;5.53;1.80;;;;;;;26.97;30.93;100847.41;20657093;28;20081;-71
2022/07/16 17:08:41;;;;;;;4.68;1.65;;;;;;;26.60;29.91;100850.25;20665262;28;20049;-74
2022/07/16 17:18:42;;;;;;;5.30;1.90;;;;;;;26.84;30.61;100861.81;20669492;28;20043;-70
2022/07/16 17:28:43;;;;;;;5.03;1.90;;;;;;;26.83;30.01;100872.69;20655436;28;20053;-71
2022/07/16 17:38:45;;;;;;;8.70;1.80;;;;;;;26.71;30.61;100887.91;20702823;28;20049;-69
2022/07/16 17:59:06;;;;;;;4.82;2.03;;;;;;;26.05;32.67;100898.09;20733564;28;20513;-68
2022/07/16 18:09:07;;;;;;;8.30;1.90;;;;;;;25.89;33.55;100902.03;20731797;28;20057;-68
2022/07/16 18:19:09;;;;;;;4.55;2.17;;;;;;;25.81;34.47;100906.09;20731177;28;20054;-68
2022/07/16 18:29:11;;;;;;;7.43;1.98;;;;;;;25.39;35.58;100914.44;20731189;28;20994;-68
2022/07/16 18:39:12;;;;;;;6.38;1.80;;;;;;;25.11;36.47;100916.38;20730913;28;20538;-69
2022/07/16 18:49:14;;;;;;;5.28;1.63;;;;;;;24.60;37.82;100924.22;20729425;28;20137;-69
2022/07/16 18:59:15;;;;;;;8.02;2.45;;;;;;;24.24;39.24;100941.72;20747934;22;20117;-78
2022/07/16 19:09:17;;;;;;;8.15;2.22;;;;;;;23.90;39.25;100947.47;20731736;28;20133;-79
2022/07/16 19:19:20;;;;;;;8.20;2.20;;;;;;;23.55;40.55;100953.16;20807968;28;20049;-77
2022/07/16 19:29:21;;;;;;;7.82;2.08;;;;;;;23.24;41.33;100976.38;20811056;28;20056;-79
2022/07/16 19:39:23;;;;;;;8.50;2.25;;;;;;;22.93;42.07;100981.78;20808304;28;20095;-78
2022/07/16 19:49:24;;;;;;;5.68;1.88;;;;;;;22.77;42.53;100998.66;20817119;28;20458;-78
2022/07/16 19:59:26;;;;;;;5.35;2.40;;;;;;;22.47;43.22;101019.06;20827383;28;20049;-78
2022/07/16 20:09:27;;;;;;;6.97;2.63;;;;;;;22.29;43.81;101028.97;20824396;28;20050;-77
2022/07/16 20:19:29;;;;;;;5.25;2.20;;;;;;;21.88;46.60;101050.66;20749908;28;20046;-78
2022/07/16 20:29:50;;;;;;;6.68;3.00;;;;;;;21.64;46.43;101068.78;20757337;28;20062;-79
2022/07/16 20:39:54;;;;;;;6.53;2.55;;;;;;;21.46;46.37;101077.69;20773825;28;20491;-80
2022/07/16 20:49:56;;;;;;;4.23;2.17;;;;;;;21.18;46.50;101088.84;20763209;28;20578;-80
2022/07/16 20:59:57;;;;;;;5.45;2.00;;;;;;;21.04;47.54;101089.53;20769815;28;20487;-80
2022/07/16 21:09:59;;;;;;;4.85;2.13;;;;;;;20.75;47.99;101096.22;20784823;28;20069;-79
2022/07/16 21:20:04;;;;;;;5.32;2.50;;;;;;;20.45;50.55;101117.06;20854847;28;20056;-77
2022/07/16 21:30:06;;;;;;;5.68;2.42;;;;;;;20.28;51.52;101128.50;20856434;28;20057;-81
2022/07/16 21:40:07;;;;;;;6.00;2.38;;;;;;;19.90;51.97;101140.78;20850572;28;20051;-79
2022/07/16 21:50:09;;;;;;;6.13;2.70;;;;;;;19.76;51.56;101151.13;20845376;28;20064;-81
2022/07/16 22:00:15;;;;;;;3.60;2.05;;;;;;;19.55;51.31;101167.00;20852703;28;20054;-81
2022/07/16 22:10:16;;;;;;;5.28;2.35;;;;;;;19.48;51.90;101181.44;20759817;28;20065;-80
2022/07/16 22:30:38;;;;;;;5.97;2.08;;;;;;;18.92;53.99;101180.09;20761577;28;20046;-78
2022/07/16 22:40:39;;;;;;;4.22;1.83;;;;;;;18.88;53.32;101181.13;20771177;28;20388;-80
2022/07/16 22:50:41;;;;;;;3.35;1.80;;;;;;;18.59;54.36;101183.94;20761811;28;20054;-80
2022/07/16 23:00:43;;;;;;;6.32;1.90;;;;;;;18.49;54.82;101188.72;20756044;28;20274;-80
2022/07/16 23:10:45;;;;;;;4.75;2.03;;;;;;;18.48;53.88;101189.66;20751101;28;20069;-81
2022/07/16 23:20:46;;;;;;;4.03;1.58;;;;;;;18.40;53.53;101179.34;20745690;28;20129;-80
2022/07/16 23:30:48;;;;;;;6.00;1.75;;;;;;;18.21;53.53;101183.56;20743507;28;20121;-78
2022/07/16 23:40:49;;;;;;;3.92;1.50;;;;;;;18.30;52.83;101192.94;20738907;28;20050;-79
2022/07/16 23:50:51;;;;;;;4.25;1.20;;;;;;;18.38;51.31;101189.13;20739217;28;20052;-79
